Time;durP1;ratioP1;P1;durP2;ratioP2;P2;SDS_P1;SDS_P2;PMS_P1;PMS_P2;Temp;Humidity;BMP_temperature;BMP_pressure;BME280_temperature;BME280_humidity;BME280_pressure;Samples;Min_cycle;Max_cycle;Signal;HPM_P1;HPM_P2
2023/07/29 00:02:08;;;;;;;0.70;0.50;;;;;;;18.78;100.00;98191.88;4989406;28;20892;-65
2023/07/29 00:04:34;;;;;;;1.00;0.70;;;;;;;18.80;100.00;98195.13;4991048;28;20773;-65
2023/07/29 00:07:01;;;;;;;1.53;0.87;;;;;;;18.81;100.00;98188.81;4989701;28;20640;-65
2023/07/29 00:09:27;;;;;;;1.30;0.60;;;;;;;18.78;100.00;98193.75;4990480;28;20569;-65
2023/07/29 00:11:55;;;;;;;1.70;0.63;;;;;;;18.78;100.00;98186.59;4989949;28;20646;-66
2023/07/29 00:14:22;;;;;;;5.63;0.70;;;;;;;18.71;100.00;98185.84;4990667;28;20227;-65
2023/07/29 00:16:48;;;;;;;4.00;0.67;;;;;;;18.65;100.00;98176.13;4992284;28;20325;-65
2023/07/29 00:19:15;;;;;;;2.97;0.80;;;;;;;18.63;100.00;98180.81;4972220;28;20242;-65
2023/07/29 00:21:42;;;;;;;1.07;0.47;;;;;;;18.56;100.00;98176.38;4956653;28;21007;-65
2023/07/29 00:24:08;;;;;;;3.00;0.90;;;;;;;18.56;100.00;98175.59;4969598;28;20324;-65
2023/07/29 00:26:35;;;;;;;1.87;0.80;;;;;;;18.61;100.00;98175.75;4988828;28;20233;-65
2023/07/29 00:29:03;;;;;;;4.23;0.67;;;;;;;18.72;100.00;98176.88;4998499;28;20232;-65
2023/07/29 00:31:30;;;;;;;1.43;0.83;;;;;;;18.98;100.00;98186.50;5000983;28;20228;-65
2023/07/29 00:33:58;;;;;;;1.13;0.60;;;;;;;18.97;100.00;98182.22;5002784;28;20249;-65
2023/07/29 00:36:24;;;;;;;2.30;0.70;;;;;;;19.02;100.00;98184.22;4999670;28;20275;-65
2023/07/29 00:38:52;;;;;;;3.10;0.60;;;;;;;18.92;100.00;98187.31;5002190;28;20230;-65
2023/07/29 00:41:20;;;;;;;2.17;0.70;;;;;;;18.88;100.00;98186.13;4992435;28;20250;-65
2023/07/29 00:43:46;;;;;;;3.70;0.83;;;;;;;18.88;100.00;98180.84;5005933;28;20233;-65
2023/07/29 00:46:15;;;;;;;2.33;0.60;;;;;;;18.82;100.00;98177.22;4997574;28;20212;-65
2023/07/29 00:48:42;;;;;;;0.90;0.70;;;;;;;18.86;100.00;98183.69;5002411;28;20244;-66
2023/07/29 00:51:09;;;;;;;1.50;0.40;;;;;;;18.84;100.00;98175.16;4998990;28;21113;-66
2023/07/29 00:53:35;;;;;;;1.17;0.70;;;;;;;18.88;100.00;98173.72;5001781;28;20225;-66
2023/07/29 00:56:02;;;;;;;3.27;0.77;;;;;;;18.87;100.00;98173.94;4992767;28;20251;-66
2023/07/29 00:58:28;;;;;;;4.40;0.73;;;;;;;18.86;100.00;98172.31;4998090;28;20234;-66
2023/07/29 01:00:56;;;;;;;1.57;0.60;;;;;;;18.83;100.00;98165.63;4996473;28;20229;-66
2023/07/29 01:03:25;;;;;;;2.73;1.00;;;;;;;18.87;100.00;98158.06;4999985;28;20233;-66
2023/07/29 01:06:02;;;;;;;1.37;0.67;;;;;;;18.91;100.00;98155.78;4997876;28;20229;-64
2023/07/29 01:08:37;;;;;;;2.20;0.63;;;;;;;18.88;100.00;98146.47;4997717;28;20229;-65
2023/07/29 01:11:17;;;;;;;1.30;0.60;;;;;;;18.95;100.00;98143.75;5000068;28;20230;-65
2023/07/29 01:13:49;;;;;;;2.10;0.80;;;;;;;18.84;100.00;98138.16;4998359;28;20256;-66
2023/07/29 01:16:21;;;;;;;3.13;0.77;;;;;;;18.74;100.00;98146.59;4999896;28;20246;-66
2023/07/29 01:18:53;;;;;;;2.00;0.70;;;;;;;18.71;100.00;98141.72;5016800;28;20248;-66
2023/07/29 01:21:21;;;;;;;1.23;0.70;;;;;;;18.72;100.00;98151.28;5014142;28;20233;-65
2023/07/29 01:23:53;;;;;;;4.40;0.90;;;;;;;18.83;100.00;98146.31;5002872;28;20741;-66
2023/07/29 01:26:19;;;;;;;3.70;0.60;;;;;;;18.83;100.00;98154.25;5004866;28;20754;-67
2023/07/29 01:28:46;;;;;;;2.80;0.80;;;;;;;18.82;100.00;98142.84;5005781;28;20243;-65
2023/07/29 01:31:21;;;;;;;2.83;0.70;;;;;;;18.85;100.00;98144.25;4997014;28;20866;-65
2023/07/29 01:33:54;;;;;;;0.60;0.60;;;;;;;18.85;100.00;98136.31;5003795;28;20233;-66
2023/07/29 01:36:23;;;;;;;1.60;1.00;;;;;;;18.82;100.00;98134.91;4997769;28;20284;-65
2023/07/29 01:38:54;;;;;;;2.57;0.70;;;;;;;18.78;100.00;98143.50;5004753;28;20225;-65
2023/07/29 01:41:21;;;;;;;2.47;1.10;;;;;;;18.74;100.00;98143.94;5001328;28;20234;-66
2023/07/29 01:43:48;;;;;;;1.53;0.80;;;;;;;18.71;100.00;98144.38;4994752;28;20230;-65
2023/07/29 01:46:15;;;;;;;2.60;1.23;;;;;;;18.73;100.00;98144.13;4999509;28;20212;-65
2023/07/29 01:48:43;;;;;;;1.53;0.60;;;;;;;18.70;100.00;98142.75;5003583;28;20220;-65
2023/07/29 01:51:11;;;;;;;3.80;0.70;;;;;;;18.77;100.00;98137.38;4998917;28;20310;-65
2023/07/29 01:53:38;;;;;;;2.33;0.90;;;;;;;18.89;100.00;98140.94;5001175;28;20237;-66
2023/07/29 01:56:06;;;;;;;1.50;0.97;;;;;;;18.93;100.00;98143.16;5017618;28;20227;-65
2023/07/29 01:58:34;;;;;;;2.17;0.83;;;;;;;18.98;100.00;98133.59;5002111;28;20241;-65
2023/07/29 02:01:01;;;;;;;4.83;0.90;;;;;;;19.01;100.00;98143.75;5008761;28;20237;-66
2023/07/29 02:03:28;;;;;;;2.77;0.70;;;;;;;19.02;100.00;98147.19;4988174;28;20322;-66
2023/07/29 02:05:54;;;;;;;3.90;0.87;;;;;;;19.00;100.00;98143.94;5007311;28;20633;-66
2023/07/29 02:08:21;;;;;;;3.23;0.80;;;;;;;18.98;100.00;98149.47;4993082;28;20299;-66
2023/07/29 02:10:48;;;;;;;1.27;0.67;;;;;;;18.95;100.00;98139.28;4995710;28;20764;-66
2023/07/29 02:13:16;;;;;;;3.83;0.87;;;;;;;18.92;100.00;98139.72;5001857;28;20989;-66
2023/07/29 02:15:44;;;;;;;3.20;0.87;;;;;;;18.87;100.00;98132.44;5000655;28;20837;-66
2023/07/29 02:18:10;;;;;;;5.07;0.80;;;;;;;18.85;100.00;98121.25;4999697;28;20318;-66
2023/07/29 02:20:37;;;;;;;1.93;0.90;;;;;;;18.85;100.00;98129.19;5003415;28;20708;-66
2023/07/29 02:23:03;;;;;;;2.07;0.70;;;;;;;18.90;100.00;98131.19;5003173;28;20257;-64
2023/07/29 02:25:30;;;;;;;2.07;0.80;;;;;;;18.84;100.00;98137.34;5004041;28;20664;-64
2023/07/29 02:27:57;;;;;;;2.50;0.87;;;;;;;18.80;100.00;98134.31;5005684;28;20306;-64
2023/07/29 02:30:25;;;;;;;2.03;1.10;;;;;;;18.82;100.00;98136.75;4998170;28;20248;-65
2023/07/29 02:32:51;;;;;;;5.50;0.90;;;;;;;18.82;100.00;98134.91;5004867;28;20226;-66
2023/07/29 02:35:18;;;;;;;2.00;0.83;;;;;;;18.85;100.00;98137.13;5000522;28;20232;-64
2023/07/29 02:37:45;;;;;;;1.60;0.87;;;;;;;18.95;100.00;98126.06;5004065;28;20236;-64
2023/07/29 02:40:12;;;;;;;1.20;0.90;;;;;;;19.13;100.00;98125.31;5014404;28;20685;-64
2023/07/29 02:42:39;;;;;;;2.43;0.70;;;;;;;19.32;100.00;98122.69;5002295;28;20238;-64
2023/07/29 02:45:09;;;;;;;4.10;0.73;;;;;;;19.30;100.00;98114.94;5013660;28;20230;-66
2023/07/29 02:47:37;;;;;;;3.23;1.00;;;;;;;19.32;100.00;98112.88;5011832;28;20330;-64
2023/07/29 02:50:04;;;;;;;1.87;0.80;;;;;;;19.31;100.00;98107.84;5001906;28;20279;-66
2023/07/29 02:52:31;;;;;;;1.73;0.70;;;;;;;19.29;100.00;98107.25;4999836;28;20252;-66
2023/07/29 02:54:57;;;;;;;2.20;0.80;;;;;;;19.30;100.00;98114.16;5013390;28;21189;-64
2023/07/29 02:57:24;;;;;;;5.70;0.97;;;;;;;19.30;100.00;98145.91;4997254;28;20229;-64
2023/07/29 02:59:54;;;;;;;1.47;0.87;;;;;;;19.22;100.00;98149.63;5004300;28;20320;-63
2023/07/29 03:02:21;;;;;;;5.47;1.20;;;;;;;19.15;100.00;98139.13;4999941;28;20226;-63
2023/07/29 03:04:53;;;;;;;1.43;0.87;;;;;;;19.12;100.00;98141.38;5006692;28;20268;-63
2023/07/29 03:07:20;;;;;;;1.83;1.23;;;;;;;19.02;100.00;98124.19;5002357;28;20228;-63
2023/07/29 03:09:46;;;;;;;2.70;1.00;;;;;;;19.02;100.00;98120.75;5001912;28;20258;-63
2023/07/29 03:12:13;;;;;;;5.33;1.60;;;;;;;18.80;100.00;98115.00;4991074;28;20586;-63
2023/07/29 03:14:41;;;;;;;3.27;1.20;;;;;;;18.73;100.00;98099.19;4988172;28;20254;-63
2023/07/29 03:17:07;;;;;;;2.27;1.37;;;;;;;18.60;100.00;98097.47;4990442;28;20222;-63
2023/07/29 03:19:34;;;;;;;4.00;1.20;;;;;;;18.57;100.00;98096.06;5003283;28;20234;-63
2023/07/29 03:22:02;;;;;;;3.90;1.33;;;;;;;18.53;100.00;98096.72;4993809;28;20229;-63
2023/07/29 03:24:29;;;;;;;2.00;1.20;;;;;;;18.46;100.00;98096.78;4997465;28;20622;-63
2023/07/29 03:26:56;;;;;;;3.10;1.20;;;;;;;18.41;100.00;98105.34;5003502;28;20946;-63
2023/07/29 03:29:23;;;;;;;3.97;1.70;;;;;;;18.39;100.00;98114.53;4995015;28;20381;-63
2023/07/29 03:31:49;;;;;;;7.17;1.27;;;;;;;18.37;100.00;98100.72;5197369;23;20226;-65
2023/07/29 03:34:16;;;;;;;2.07;1.30;;;;;;;18.34;100.00;98109.88;4983072;28;20216;-65
2023/07/29 03:36:47;;;;;;;6.53;1.30;;;;;;;18.37;100.00;98158.84;5000981;28;20905;-63
2023/07/29 03:39:15;;;;;;;3.63;1.40;;;;;;;18.38;100.00;98134.03;5005074;28;20213;-63
2023/07/29 03:41:42;;;;;;;4.93;1.60;;;;;;;18.35;100.00;98156.41;4992503;28;20236;-63
2023/07/29 03:44:08;;;;;;;3.10;1.10;;;;;;;18.31;100.00;98176.34;4996333;28;20767;-63
2023/07/29 03:46:35;;;;;;;5.20;1.47;;;;;;;18.31;100.00;98154.41;4995070;28;20232;-63
2023/07/29 03:49:03;;;;;;;4.00;1.57;;;;;;;18.26;100.00;98129.44;4995762;28;20233;-63
2023/07/29 03:51:30;;;;;;;2.00;1.40;;;;;;;18.31;100.00;98118.22;4998202;28;20228;-63
2023/07/29 03:53:57;;;;;;;2.27;1.40;;;;;;;18.31;100.00;98120.06;5001662;28;20251;-63
2023/07/29 03:56:24;;;;;;;4.53;1.30;;;;;;;18.36;100.00;98128.16;4986800;28;20619;-63
2023/07/29 03:58:51;;;;;;;2.37;1.13;;;;;;;18.38;100.00;98115.56;4995632;28;20230;-63
2023/07/29 04:01:18;;;;;;;1.63;1.10;;;;;;;18.35;100.00;98108.06;4990088;28;20231;-63
2023/07/29 04:03:45;;;;;;;3.57;1.13;;;;;;;18.37;100.00;98108.66;5000024;28;20723;-63
2023/07/29 04:06:12;;;;;;;1.20;0.90;;;;;;;18.42;100.00;98112.25;4991967;28;20239;-63
2023/07/29 04:08:39;;;;;;;0.80;0.70;;;;;;;18.44;100.00;98106.78;4990753;28;20248;-63
2023/07/29 04:11:05;;;;;;;1.47;1.10;;;;;;;18.53;100.00;98100.19;4999699;28;20229;-63
2023/07/29 04:13:33;;;;;;;1.63;0.80;;;;;;;18.58;100.00;98099.53;4997858;28;20232;-63
2023/07/29 04:16:00;;;;;;;1.07;0.83;;;;;;;18.60;100.00;98084.28;4993164;28;20228;-63
2023/07/29 04:18:28;;;;;;;2.00;0.73;;;;;;;18.69;100.00;98090.06;4989504;28;20268;-63
2023/07/29 04:20:54;;;;;;;0.60;0.60;;;;;;;18.65;100.00;98105.56;4999708;28;20238;-63
2023/07/29 04:23:21;;;;;;;1.43;0.90;;;;;;;18.66;100.00;98099.25;4997009;28;20249;-63
2023/07/29 04:25:48;;;;;;;1.60;0.80;;;;;;;18.65;100.00;98102.09;4993958;28;20783;-63
2023/07/29 04:28:14;;;;;;;1.47;0.80;;;;;;;18.69;100.00;98095.38;4994155;28;20223;-63
2023/07/29 04:30:42;;;;;;;1.50;0.73;;;;;;;18.73;100.00;98110.59;4992934;28;20232;-63
2023/07/29 04:33:09;;;;;;;0.93;0.83;;;;;;;18.74;100.00;98104.28;4988458;28;20229;-63
2023/07/29 04:35:37;;;;;;;1.83;0.90;;;;;;;18.71;100.00;98096.78;4992025;28;20280;-63
2023/07/29 04:38:04;;;;;;;1.40;1.10;;;;;;;18.71;100.00;98101.25;5005785;28;20623;-63
2023/07/29 04:40:33;;;;;;;3.07;0.80;;;;;;;18.70;100.00;98115.50;4994775;28;20237;-63
2023/07/29 04:43:01;;;;;;;1.50;0.83;;;;;;;18.62;100.00;98105.19;4990759;28;20237;-64
2023/07/29 04:45:29;;;;;;;2.10;0.93;;;;;;;18.54;100.00;98117.66;4996343;28;20772;-64
2023/07/29 04:47:57;;;;;;;1.77;1.27;;;;;;;18.53;100.00;98107.28;4994664;28;20698;-64
2023/07/29 04:50:24;;;;;;;1.90;1.57;;;;;;;18.64;100.00;98106.59;4986438;28;20256;-64
2023/07/29 04:52:53;;;;;;;3.83;1.63;;;;;;;18.69;100.00;98113.88;4994816;28;20315;-64
2023/07/29 04:55:19;;;;;;;2.70;1.30;;;;;;;18.64;100.00;98111.88;4986970;28;20224;-64
2023/07/29 04:57:46;;;;;;;3.07;1.63;;;;;;;18.59;100.00;98104.59;4991123;28;20234;-64
2023/07/29 05:00:13;;;;;;;1.77;1.47;;;;;;;18.65;100.00;98107.41;4992769;28;20225;-64
2023/07/29 05:02:39;;;;;;;2.50;1.37;;;;;;;18.71;100.00;98110.00;4998783;28;20331;-64
2023/07/29 05:05:08;;;;;;;5.77;1.93;;;;;;;18.83;100.00;98120.66;4993062;28;20237;-64
2023/07/29 05:07:35;;;;;;;3.47;1.40;;;;;;;18.88;100.00;98123.47;4988009;28;20244;-64
2023/07/29 05:10:02;;;;;;;3.47;1.73;;;;;;;18.96;100.00;98117.13;4992568;28;20327;-64
2023/07/29 05:12:29;;;;;;;1.27;1.13;;;;;;;18.99;100.00;98123.81;4993931;28;20260;-64
2023/07/29 05:14:55;;;;;;;4.33;1.63;;;;;;;19.07;100.00;98126.19;5003167;28;20252;-64
2023/07/29 05:17:22;;;;;;;2.63;1.67;;;;;;;19.13;100.00;98129.78;4988163;28;20228;-64
2023/07/29 05:19:54;;;;;;;4.23;1.20;;;;;;;19.29;100.00;98136.34;5002477;28;20326;-64
2023/07/29 05:22:22;;;;;;;1.50;1.20;;;;;;;19.43;100.00;98124.59;5000154;28;20348;-64
2023/07/29 05:24:52;;;;;;;2.77;1.20;;;;;;;19.50;100.00;98126.38;4995708;28;20226;-64
2023/07/29 05:27:19;;;;;;;2.40;1.10;;;;;;;19.50;100.00;98119.22;4992476;28;20235;-64
2023/07/29 05:29:46;;;;;;;2.43;1.10;;;;;;;19.54;100.00;98123.03;4993874;28;20240;-63
2023/07/29 05:32:12;;;;;;;3.57;1.40;;;;;;;19.55;100.00;98124.66;4961049;28;1139883;-63
2023/07/29 05:34:39;;;;;;;1.73;1.10;;;;;;;19.63;100.00;98134.13;4992607;28;20983;-63
2023/07/29 05:37:06;;;;;;;1.40;1.10;;;;;;;19.67;100.00;98145.09;5003748;28;20251;-63
2023/07/29 05:39:34;;;;;;;3.97;1.30;;;;;;;19.71;100.00;98140.97;4993437;28;20280;-63
2023/07/29 05:42:03;;;;;;;4.03;1.20;;;;;;;19.75;100.00;98150.09;5003544;28;20256;-63
2023/07/29 05:44:30;;;;;;;1.73;1.40;;;;;;;19.73;100.00;98150.28;4991916;28;20234;-63
2023/07/29 05:46:56;;;;;;;1.87;1.07;;;;;;;19.68;100.00;98149.34;5004062;28;20250;-63
2023/07/29 05:49:23;;;;;;;3.23;1.47;;;;;;;19.70;100.00;98161.34;4995272;28;20238;-63
2023/07/29 05:51:52;;;;;;;1.87;1.40;;;;;;;19.73;100.00;98162.75;5003676;28;20287;-63
2023/07/29 05:54:19;;;;;;;2.90;1.30;;;;;;;19.75;100.00;98168.63;5007419;28;20260;-63
2023/07/29 05:56:47;;;;;;;1.80;1.30;;;;;;;19.65;100.00;98163.03;4995345;28;20369;-63
2023/07/29 05:59:14;;;;;;;2.73;1.40;;;;;;;19.66;100.00;98165.44;4999475;28;20939;-63
2023/07/29 06:01:40;;;;;;;1.70;1.20;;;;;;;19.74;100.00;98181.03;5003552;28;20252;-63
2023/07/29 06:04:07;;;;;;;2.63;1.40;;;;;;;19.80;100.00;98184.66;4992730;28;20341;-63
2023/07/29 06:06:35;;;;;;;1.50;1.20;;;;;;;19.78;100.00;98192.00;4989594;28;20231;-64
2023/07/29 06:09:01;;;;;;;3.03;1.40;;;;;;;19.69;100.00;98196.00;4996320;28;20240;-64
2023/07/29 06:11:28;;;;;;;2.30;1.60;;;;;;;19.56;100.00;98192.44;4991183;28;20241;-63
2023/07/29 06:13:56;;;;;;;2.77;1.50;;;;;;;19.46;100.00;98224.72;5001503;28;20230;-63
2023/07/29 06:16:22;;;;;;;2.90;1.43;;;;;;;19.52;100.00;98206.34;4991667;28;20709;-63
2023/07/29 06:18:49;;;;;;;2.33;1.37;;;;;;;19.47;100.00;98217.59;5001030;28;20241;-63
2023/07/29 06:21:17;;;;;;;5.67;1.80;;;;;;;19.38;100.00;98203.03;4999391;28;20225;-63
2023/07/29 06:23:44;;;;;;;3.17;1.80;;;;;;;19.33;100.00;98209.78;4996334;28;20254;-63
2023/07/29 06:26:10;;;;;;;2.40;2.00;;;;;;;19.38;100.00;98217.06;4990654;28;20281;-63
2023/07/29 06:28:37;;;;;;;2.77;1.57;;;;;;;19.38;100.00;98209.13;4994184;28;20310;-63
2023/07/29 06:31:05;;;;;;;5.03;1.70;;;;;;;19.30;100.00;98204.91;5001794;28;20235;-63
2023/07/29 06:33:31;;;;;;;4.57;1.73;;;;;;;19.30;100.00;98210.22;4989619;28;20242;-63
2023/07/29 06:35:58;;;;;;;2.60;2.00;;;;;;;19.37;100.00;98209.34;4998564;28;20300;-63
2023/07/29 06:38:25;;;;;;;3.37;1.60;;;;;;;19.43;100.00;98209.28;4991955;28;20231;-63
2023/07/29 06:40:52;;;;;;;2.40;1.43;;;;;;;19.56;100.00;98205.69;4995588;28;20246;-63
2023/07/29 06:43:18;;;;;;;1.53;1.00;;;;;;;19.64;100.00;98204.56;4991220;28;20225;-63
2023/07/29 06:45:45;;;;;;;1.47;1.10;;;;;;;19.81;100.00;98212.75;4993190;28;20263;-63
2023/07/29 06:48:13;;;;;;;2.23;1.20;;;;;;;19.96;100.00;98208.97;4989230;28;20248;-63
2023/07/29 06:50:40;;;;;;;1.70;1.13;;;;;;;19.84;100.00;98211.50;5002008;28;20236;-63
2023/07/29 06:53:07;;;;;;;1.83;1.20;;;;;;;19.79;100.00;98212.16;4991728;28;20980;-63
2023/07/29 06:55:33;;;;;;;1.80;1.10;;;;;;;19.70;100.00;98213.50;4990225;28;20237;-63
2023/07/29 06:58:00;;;;;;;2.00;1.37;;;;;;;19.64;100.00;98211.72;4996445;28;20241;-63
2023/07/29 07:00:27;;;;;;;2.27;1.10;;;;;;;19.66;100.00;98210.47;4989680;28;20245;-63
2023/07/29 07:02:53;;;;;;;1.70;1.00;;;;;;;19.71;100.00;98201.88;4993535;28;20292;-63
2023/07/29 07:05:21;;;;;;;3.63;1.00;;;;;;;19.73;100.00;98211.19;4990805;28;20228;-63
2023/07/29 07:07:48;;;;;;;1.97;0.93;;;;;;;19.81;100.00;98215.41;4994314;28;20221;-63
2023/07/29 07:10:15;;;;;;;1.97;1.10;;;;;;;20.04;100.00;98206.00;4991424;28;20229;-63
2023/07/29 07:12:41;;;;;;;1.73;0.90;;;;;;;20.31;100.00;98206.47;4993838;28;20234;-63
2023/07/29 07:15:09;;;;;;;1.77;0.80;;;;;;;20.73;100.00;98195.06;4999272;28;20228;-63
2023/07/29 07:17:35;;;;;;;1.13;0.70;;;;;;;21.00;100.00;98199.97;4992898;28;20232;-63
2023/07/29 07:20:02;;;;;;;1.23;0.87;;;;;;;21.31;99.35;98198.00;4993807;28;20246;-63
2023/07/29 07:22:30;;;;;;;1.53;0.87;;;;;;;21.48;97.13;98200.78;4991642;28;20567;-63
2023/07/29 07:24:57;;;;;;;1.90;0.77;;;;;;;21.84;93.85;98214.03;4990042;28;20247;-63
2023/07/29 07:27:24;;;;;;;1.20;0.80;;;;;;;22.02;95.12;98215.72;4984686;28;20235;-64
2023/07/29 07:29:54;;;;;;;2.67;0.87;;;;;;;22.00;95.14;98217.78;4995153;28;20321;-64
2023/07/29 07:32:21;;;;;;;1.03;0.70;;;;;;;22.12;89.84;98210.59;4992625;28;20239;-64
2023/07/29 07:34:53;;;;;;;1.20;0.70;;;;;;;22.10;90.89;98223.31;4993803;28;20269;-64
2023/07/29 07:37:20;;;;;;;1.00;0.70;;;;;;;21.71;90.93;98216.94;4989884;28;20289;-64
2023/07/29 07:39:48;;;;;;;0.67;0.50;;;;;;;22.04;91.66;98212.84;4993640;28;20237;-64
2023/07/29 07:42:14;;;;;;;1.47;0.70;;;;;;;21.94;92.36;98219.56;4990282;28;20631;-64
2023/07/29 07:44:41;;;;;;;1.53;0.70;;;;;;;22.11;89.19;98221.47;4992863;28;20285;-64
2023/07/29 07:47:08;;;;;;;2.23;0.53;;;;;;;22.13;90.12;98222.03;4990107;28;20235;-64
2023/07/29 07:49:34;;;;;;;1.10;0.70;;;;;;;22.26;90.56;98218.28;4991244;28;20706;-64
2023/07/29 07:52:01;;;;;;;1.00;0.60;;;;;;;22.53;86.15;98217.75;4993287;28;20246;-64
2023/07/29 07:54:27;;;;;;;0.80;0.77;;;;;;;22.53;88.00;98217.75;4992399;28;22714;-64
2023/07/29 07:56:55;;;;;;;0.67;0.50;;;;;;;22.68;88.51;98218.03;4992458;28;20642;-64
2023/07/29 07:59:22;;;;;;;0.67;0.57;;;;;;;23.20;85.41;98218.03;4991205;28;20593;-64
2023/07/29 08:01:48;;;;;;;2.90;0.67;;;;;;;23.54;80.16;98223.31;4991733;28;20282;-64
2023/07/29 08:04:15;;;;;;;1.97;0.70;;;;;;;23.58;82.19;98237.75;4988929;28;20225;-65
2023/07/29 08:06:41;;;;;;;0.90;0.70;;;;;;;23.93;80.12;98236.59;4989915;28;20235;-66
2023/07/29 08:09:08;;;;;;;1.67;0.70;;;;;;;24.27;78.84;98239.16;4992084;28;20239;-65
2023/07/29 08:11:35;;;;;;;1.73;0.50;;;;;;;24.39;76.64;98233.69;4993202;28;20231;-67
2023/07/29 08:14:03;;;;;;;1.13;0.60;;;;;;;24.25;75.92;98235.94;4999955;28;20248;-65
2023/07/29 08:16:29;;;;;;;1.83;0.90;;;;;;;24.29;78.91;98242.41;4987534;28;20230;-66
2023/07/29 08:18:56;;;;;;;0.90;0.53;;;;;;;23.62;81.02;98238.88;4991154;28;20716;-62
2023/07/29 08:21:23;;;;;;;2.47;0.60;;;;;;;23.56;80.78;98245.19;4988953;28;20329;-62
2023/07/29 08:23:50;;;;;;;0.77;0.70;;;;;;;23.65;80.29;98246.38;5000805;28;20234;-64
2023/07/29 08:26:16;;;;;;;1.57;0.67;;;;;;;23.81;79.47;98242.06;4986565;28;20224;-64
2023/07/29 08:28:43;;;;;;;1.30;0.77;;;;;;;23.89;76.85;98230.16;4993307;28;20805;-65
2023/07/29 08:31:11;;;;;;;1.33;0.90;;;;;;;22.96;80.58;98232.28;4990890;28;20241;-65
2023/07/29 08:33:37;;;;;;;1.30;0.90;;;;;;;22.90;81.06;98238.56;4988084;28;20239;-65
2023/07/29 08:36:04;;;;;;;4.10;0.73;;;;;;;22.77;84.26;98241.56;4993622;28;20240;-64
2023/07/29 08:38:31;;;;;;;1.33;0.80;;;;;;;23.00;81.57;98240.63;4988354;28;20298;-65
2023/07/29 08:41:05;;;;;;;1.10;0.80;;;;;;;21.83;87.19;98228.34;4995499;28;20643;-65
2023/07/29 08:43:33;;;;;;;3.80;0.80;;;;;;;22.07;86.36;98231.75;4989193;28;20835;-65
2023/07/29 08:46:00;;;;;;;2.87;0.97;;;;;;;22.26;86.13;98224.41;4995577;28;20238;-65
2023/07/29 08:48:37;;;;;;;1.60;1.00;;;;;;;22.44;85.57;98238.59;4996188;28;20258;-65
2023/07/29 08:51:06;;;;;;;2.10;0.80;;;;;;;22.21;85.58;98228.81;4998988;28;20760;-65
2023/07/29 08:53:33;;;;;;;1.87;0.90;;;;;;;21.98;85.79;98235.81;4992448;28;20576;-64
2023/07/29 08:56:00;;;;;;;1.13;0.90;;;;;;;21.73;86.65;98231.59;4998492;28;20238;-64
2023/07/29 08:58:27;;;;;;;1.50;0.90;;;;;;;21.68;87.25;98236.81;4993250;28;20287;-60
2023/07/29 09:00:54;;;;;;;3.80;1.00;;;;;;;21.56;90.17;98241.31;4994757;28;20246;-65
2023/07/29 09:03:21;;;;;;;1.37;0.90;;;;;;;21.43;89.59;98242.34;4992409;28;20238;-66
2023/07/29 09:05:49;;;;;;;2.53;1.00;;;;;;;21.60;89.72;98232.63;4994024;28;20281;-65
2023/07/29 09:08:16;;;;;;;1.60;1.00;;;;;;;22.01;89.40;98227.38;4992405;28;20222;-65
2023/07/29 09:10:42;;;;;;;2.03;1.00;;;;;;;22.25;85.52;98230.78;4995295;28;20242;-66
2023/07/29 09:13:09;;;;;;;4.43;1.13;;;;;;;22.12;87.79;98229.19;4995179;28;20298;-66
2023/07/29 09:15:37;;;;;;;1.40;0.80;;;;;;;22.32;88.40;98229.81;4996469;28;20232;-65
2023/07/29 09:18:10;;;;;;;1.20;1.00;;;;;;;22.41;86.63;98223.91;4993753;28;20709;-65
2023/07/29 09:20:37;;;;;;;3.50;1.10;;;;;;;22.17;89.08;98215.22;4993564;28;20233;-65
2023/07/29 09:23:08;;;;;;;2.57;1.07;;;;;;;21.93;89.57;98217.94;4998389;28;20227;-65
2023/07/29 09:25:35;;;;;;;3.13;1.30;;;;;;;21.76;89.10;98222.38;4989660;28;20682;-65
2023/07/29 09:28:02;;;;;;;4.87;1.60;;;;;;;21.30;98.07;98262.75;4995609;28;20231;-65
2023/07/29 09:30:29;;;;;;;12.40;1.50;;;;;;;19.85;100.00;98293.38;4993853;28;20268;-65
2023/07/29 09:32:57;;;;;;;6.17;0.80;;;;;;;18.82;100.00;98274.25;5004627;28;20287;-65
2023/07/29 09:35:24;;;;;;;2.97;0.73;;;;;;;18.54;100.00;98241.88;4988924;28;20575;-65
2023/07/29 09:37:51;;;;;;;0.60;0.50;;;;;;;18.68;100.00;98257.66;4994542;28;21156;-65
2023/07/29 09:40:20;;;;;;;1.33;0.50;;;;;;;19.12;100.00;98252.50;5000613;28;20652;-65
2023/07/29 09:42:51;;;;;;;2.77;0.70;;;;;;;19.66;100.00;98252.03;4995459;28;20674;-65
2023/07/29 09:45:22;;;;;;;1.80;0.60;;;;;;;20.39;100.00;98253.03;4992769;28;20297;-65
2023/07/29 09:47:49;;;;;;;3.57;0.50;;;;;;;20.91;100.00;98263.16;4994053;28;20621;-65
2023/07/29 09:50:16;;;;;;;3.20;0.70;;;;;;;21.33;100.00;98256.19;4990562;28;20265;-65
2023/07/29 09:52:45;;;;;;;1.60;0.53;;;;;;;21.24;100.00;98256.53;4994331;28;20239;-65
2023/07/29 09:55:13;;;;;;;0.60;0.57;;;;;;;21.42;100.00;98269.91;4991312;28;20245;-64
2023/07/29 09:57:41;;;;;;;2.83;0.50;;;;;;;21.79;100.00;98265.19;4990971;28;20700;-64
2023/07/29 10:00:11;;;;;;;1.90;0.70;;;;;;;21.86;100.00;98267.75;5009790;28;20226;-64
2023/07/29 10:02:39;;;;;;;2.80;0.60;;;;;;;21.73;100.00;98262.69;4996171;28;20230;-64
2023/07/29 10:05:08;;;;;;;0.60;0.50;;;;;;;21.87;100.00;98261.38;4996213;28;20234;-64
2023/07/29 10:07:35;;;;;;;3.50;0.60;;;;;;;22.27;100.00;98265.09;4992025;28;20348;-64
2023/07/29 10:10:04;;;;;;;1.93;0.70;;;;;;;22.11;98.20;98262.13;4998226;28;20330;-64
2023/07/29 10:12:32;;;;;;;1.50;0.60;;;;;;;22.63;94.14;98268.47;4990819;28;20229;-64
2023/07/29 10:15:03;;;;;;;1.50;0.80;;;;;;;21.75;100.00;98253.41;4995530;28;20323;-64
2023/07/29 10:17:31;;;;;;;2.47;0.80;;;;;;;22.11;100.00;98258.69;4988391;28;20247;-64
2023/07/29 10:19:58;;;;;;;1.30;1.10;;;;;;;22.05;100.00;98263.06;4994424;28;20240;-64
2023/07/29 10:22:28;;;;;;;1.93;1.20;;;;;;;22.17;100.00;98263.06;4990407;28;20237;-65
2023/07/29 10:24:57;;;;;;;1.00;0.87;;;;;;;21.66;100.00;98268.13;4996983;28;20625;-65
2023/07/29 10:27:25;;;;;;;1.93;1.00;;;;;;;21.76;100.00;98270.97;4995029;28;20235;-65
2023/07/29 10:29:56;;;;;;;3.93;1.30;;;;;;;22.03;100.00;98267.81;4991903;28;20266;-65
2023/07/29 10:32:27;;;;;;;6.27;1.30;;;;;;;22.41;100.00;98273.59;4994261;28;20273;-65
2023/07/29 10:34:55;;;;;;;1.37;1.10;;;;;;;22.71;95.92;98275.25;4999731;28;20267;-65
2023/07/29 10:37:23;;;;;;;3.63;1.27;;;;;;;22.67;95.03;98269.59;4990962;28;20295;-65
2023/07/29 10:39:56;;;;;;;1.00;0.90;;;;;;;23.06;94.77;98279.56;4994529;28;20250;-65
2023/07/29 10:42:23;;;;;;;1.23;0.90;;;;;;;23.54;91.32;98292.56;4990945;28;20239;-65
2023/07/29 10:44:54;;;;;;;1.10;0.87;;;;;;;23.72;88.57;98294.97;4995947;28;20228;-65
2023/07/29 10:47:23;;;;;;;0.93;0.83;;;;;;;23.80;87.72;98284.94;4998831;28;20233;-65
2023/07/29 10:49:57;;;;;;;1.33;0.80;;;;;;;23.56;86.38;98282.47;4995125;28;20281;-65
2023/07/29 10:52:32;;;;;;;1.00;0.80;;;;;;;23.78;85.96;98279.06;4990644;28;20250;-65
2023/07/29 10:54:59;;;;;;;2.53;0.90;;;;;;;24.10;87.30;98271.22;4994832;28;20384;-65
2023/07/29 10:57:36;;;;;;;3.47;1.00;;;;;;;24.52;90.65;98275.16;4994335;28;20249;-65
2023/07/29 11:00:04;;;;;;;1.43;0.80;;;;;;;24.74;90.24;98277.00;4993237;28;20238;-65
2023/07/29 11:02:33;;;;;;;1.37;0.90;;;;;;;24.87;81.37;98275.81;4991018;28;20284;-65
2023/07/29 11:05:06;;;;;;;1.20;0.87;;;;;;;24.66;88.03;98280.91;4997565;28;20773;-65
2023/07/29 11:07:44;;;;;;;1.40;0.70;;;;;;;24.73;82.47;98275.38;4995065;28;20237;-65
2023/07/29 11:10:12;;;;;;;1.27;0.80;;;;;;;24.50;80.46;98279.94;4991774;28;20227;-65
2023/07/29 11:12:45;;;;;;;2.37;0.80;;;;;;;24.30;86.79;98275.19;4993432;28;20240;-65
2023/07/29 11:15:33;;;;;;;3.73;1.10;;;;;;;24.00;85.20;98269.25;4993739;28;20231;-65
2023/07/29 11:18:01;;;;;;;1.57;0.97;;;;;;;24.22;84.45;98268.44;4992691;28;20923;-65
2023/07/29 11:20:31;;;;;;;1.03;0.87;;;;;;;24.31;83.16;98271.47;4992502;28;20693;-65
2023/07/29 11:22:58;;;;;;;3.10;1.00;;;;;;;24.38;84.29;98263.28;4993584;28;20234;-65
2023/07/29 11:25:28;;;;;;;1.30;0.90;;;;;;;24.71;85.52;98261.47;4993089;28;20231;-65
2023/07/29 11:27:56;;;;;;;2.77;1.10;;;;;;;24.88;80.14;98256.06;4993262;28;20251;-65
2023/07/29 11:30:26;;;;;;;8.03;1.10;;;;;;;25.30;84.48;98257.97;4993081;28;20586;-65